Pagrindinis puslapis
METAR-TAF:

METAR-TAF

Oro uostai :

Giumri, Armėnija

platuma: 40-45-01N, ilguma: 043-51-33E, Aukštis: 1524 m

Dabartinis oras

Ataskaita buvo paskelbta 25 minutes, ne 04:30 UTC
Ramus vėjas
Temperatūra -10°C
Drėgmė 92%
Slėgis 1019 hPa
Matomumas: 2000 m
Apsiniaukę ne aukštis 500 ft
rūkana

METAR: UDSG 100430Z 00000KT 2000 BR OVC005 M10/M11 Q1019 R02/CLRD70 NOSIG

Laikas: 08:55 (04:55 UTC)

Prognozė

Ataskaita buvo paskelbta 5 valandos ir 49 minutes, ne 23:06 UTC
Prognozė galioja nuo 10 metu 00 UTC su 10 metu 24 UTC
Vėjas 6 kt iš Vakarų/Pietvakarių
Matomumas: 0200 m
Apsiniaukę ne aukštis 200 ft
įšaldymas rūko
Laikinai
nuo 10 metu 00 UTC su 10 metu 05 UTC
Matomumas: 0800 m
Apsiniaukę ne aukštis 500 ft
įšaldymas rūko
Tapsmas
nuo 10 metu 05 UTC su 10 metu 07 UTC
Matomumas: 3000 m
Su prošvaistėmis ne aukštis 3000 ft
rūkana

TAF: UDSG 092306Z 1000/1024 24006KT 0200 FZFG OVC002 TEMPO 1000/1005 0800 FZFG OVC005 BECMG 1005/1007 3000 BR BKN030

Orai ataskaitas ir orų prognozės (METAR, TAF).

turimą stotys yra geltonos ir raudonos taškus žemėlapyje.

Perkelti pele per norėdami pamatyti stoties vardą.

Tada spustelėkite, norėdami matyti oro stebėjimo ir prognozės.

Norėdami pakeisti žemėlapį: spustelėkite ant žalios mygtukų su juodo kryžiaus žemyn,; žalią mygtuką su brūkšneliu, jei norite nutolinti; arba žalių rodyklių gretimoms žemėlapius.


METAR-TAF: